PWSweather.com
Personal Weather Stations
Station Observations

OlomoucCZ

Lat: 49.5936202181, Lon: 17.2276005149

Elevation: 752

Station Type: Davis Vantage Pro 2 Activ

http://infopocasi-olomouc.cz

Latest ConditionsUpdated 12:00:01 PM GMT+01:01 Tuesday, Aug 14, 2018
Currently Today's Max Today's Min Today's Average
Temperature 79.7°F26.5°C 79.7°F26.5°C 66.3°F19.1°C 71.3°F21.8°C
Dew Point 62.6°F17.0°C 63.7°F17.6°C 59.4°F15.2°C 61.6°F16.4°C
Winds 8.1 mph W13.0 kmh W 9.2 mph -14.8 kmh - - 5.8 mph 9.3 kmh
Wind Gusts 9.2 mph14.8 kmh 13.8 mph22.2 kmh - -
Humidity 56% 87% 56% 72%
Pressure 29.82 in1009.8 mb 29.83 in1010.2 mb 29.73 in1006.8 mb -
Precipitation - 0.01 in0.3 mm - -
Hour Temp Dew Point Humidity Winds Wind Gusts Pressure Precip Precip Rate Daily Precip Total
12:00 PM 79.7°F26.5°C 62.6°F17.0°C 56% 8.1 mph W13.0 kmh W 9.2 mph14.8 kmh 29.82 in1009.8 mb - 0.00 in0.0 mm 0.01 in0.3 mm
11:30 AM 76.0°F24.4°C 62.9°F17.2°C 64% 5.8 mph NNW9.3 kmh NNW 10.4 mph16.7 kmh 29.83 in1010.2 mb - 0.00 in0.0 mm 0.01 in0.3 mm
11:00 AM 77.7°F25.4°C 63.7°F17.6°C 62% 4.6 mph NNW7.4 kmh NNW 8.1 mph13.0 kmh 29.83 in1010.2 mb - 0.00 in0.0 mm 0.01 in0.3 mm
10:30 AM 75.2°F24.0°C 63.0°F17.2°C 66% 3.5 mph NNW5.6 kmh NNW 10.4 mph16.7 kmh 29.83 in1010.2 mb - 0.00 in0.0 mm 0.01 in0.3 mm
10:00 AM 73.7°F23.2°C 62.9°F17.2°C 69% 9.2 mph NW14.8 kmh NW 13.8 mph22.2 kmh 29.83 in1010.2 mb - 0.00 in0.0 mm 0.01 in0.3 mm
09:30 AM 71.4°F21.9°C 62.3°F16.8°C 73% 9.2 mph NW14.8 kmh NW 11.5 mph18.5 kmh 29.83 in1010.2 mb - 0.00 in0.0 mm 0.01 in0.3 mm
09:00 AM 70.1°F21.2°C 61.8°F16.6°C 75% 8.1 mph NW13.0 kmh NW 10.4 mph16.7 kmh 29.83 in1010.2 mb - 0.00 in0.0 mm 0.01 in0.3 mm
08:30 AM 69.7°F20.9°C 61.8°F16.6°C 76% 6.9 mph NW11.1 kmh NW 11.5 mph18.5 kmh 29.82 in1009.8 mb - 0.00 in0.0 mm 0.01 in0.3 mm
08:00 AM 68.2°F20.1°C 62.1°F16.7°C 81% 8.1 mph NW13.0 kmh NW 11.5 mph18.5 kmh 29.81 in1009.5 mb - 0.00 in0.0 mm 0.01 in0.3 mm
07:30 AM 67.5°F19.7°C 62.5°F16.9°C 84% 9.2 mph NW14.8 kmh NW 11.5 mph18.5 kmh 29.80 in1009.1 mb - 0.01 in0.3 mm 0.01 in0.3 mm
07:00 AM 66.3°F19.1°C 62.3°F16.8°C 87% 5.8 mph NW9.3 kmh NW 9.2 mph14.8 kmh 29.80 in1009.1 mb - 0.00 in0.0 mm 0.00 in0.0 mm
06:30 AM 67.4°F19.7°C 61.4°F16.3°C 81% 8.1 mph WNW13.0 kmh WNW 11.5 mph18.5 kmh 29.79 in1008.8 mb - 0.00 in0.0 mm 0.00 in0.0 mm
06:00 AM 69.7°F20.9°C 60.3°F15.7°C 72% 6.9 mph NW11.1 kmh NW 9.2 mph14.8 kmh 29.77 in1008.1 mb - 0.00 in0.0 mm 0.00 in0.0 mm
05:30 AM 69.3°F20.7°C 59.9°F15.5°C 72% 4.6 mph WNW7.4 kmh WNW 9.2 mph14.8 kmh 29.77 in1008.1 mb - 0.00 in0.0 mm 0.00 in0.0 mm
05:00 AM 68.9°F20.5°C 59.5°F15.3°C 72% 3.5 mph NW5.6 kmh NW 4.6 mph7.4 kmh 29.75 in1007.5 mb - 0.00 in0.0 mm 0.00 in0.0 mm
04:30 AM 69.2°F20.7°C 59.4°F15.2°C 71% 6.9 mph NW11.1 kmh NW 8.1 mph13.0 kmh 29.74 in1007.1 mb - 0.00 in0.0 mm 0.00 in0.0 mm
04:00 AM 69.8°F21.0°C 60.0°F15.6°C 71% 5.8 mph WSW9.3 kmh WSW 10.4 mph16.7 kmh 29.75 in1007.5 mb - 0.00 in0.0 mm 0.00 in0.0 mm
03:30 AM 71.4°F21.9°C 59.9°F15.5°C 67% 9.2 mph WNW14.8 kmh WNW 11.5 mph18.5 kmh 29.74 in1007.1 mb - 0.00 in0.0 mm 0.00 in0.0 mm
03:00 AM 71.7°F22.1°C 60.2°F15.7°C 67% 5.8 mph NW9.3 kmh NW 8.1 mph13.0 kmh 29.74 in1007.1 mb - 0.00 in0.0 mm 0.00 in0.0 mm
02:30 AM 71.8°F22.1°C 60.7°F15.9°C 68% 6.9 mph WNW11.1 kmh WNW 9.2 mph14.8 kmh 29.74 in1007.1 mb - 0.00 in0.0 mm 0.00 in0.0 mm
02:00 AM 69.4°F20.8°C 61.5°F16.4°C 76% Calm Calm 3.5 mph5.6 kmh 29.74 in1007.1 mb - 0.00 in0.0 mm 0.00 in0.0 mm
01:30 AM 70.0°F21.1°C 61.7°F16.5°C 75% 4.6 mph SW7.4 kmh SW 4.6 mph7.4 kmh 29.74 in1007.1 mb - 0.00 in0.0 mm 0.00 in0.0 mm
01:00 AM 71.0°F21.7°C 62.3°F16.8°C 74% Calm Calm -- 29.73 in1006.8 mb - 0.00 in0.0 mm 0.00 in0.0 mm
12:30 AM 72.4°F22.4°C 62.1°F16.7°C 70% 1.2 mph E1.9 kmh E 3.5 mph5.6 kmh 29.73 in1006.8 mb - 0.00 in0.0 mm 0.00 in0.0 mm
12:00 AM 74.6°F23.7°C 62.5°F16.9°C 66% 3.5 mph E5.6 kmh E 5.8 mph9.3 kmh 29.73 in1006.8 mb - 0.00 in0.0 mm 0.00 in0.0 mm